createdAt,value
2019-04-22T00:05:04.691Z,101071.00
2019-04-22T00:07:53.203Z,101068.00
2019-04-22T00:10:30.921Z,101061.00
2019-04-22T00:12:54.609Z,101061.00
2019-04-22T00:15:20.168Z,101050.00
2019-04-22T00:18:03.330Z,101054.00
2019-04-22T00:20:30.829Z,101052.00
2019-04-22T00:23:00.193Z,101052.00
2019-04-22T00:25:34.774Z,101043.00
2019-04-22T00:28:11.480Z,101042.00
2019-04-22T00:30:35.580Z,101042.00
2019-04-22T00:33:08.999Z,101039.00
2019-04-22T00:35:41.403Z,101037.00
2019-04-22T00:38:20.393Z,101035.00
2019-04-22T00:40:44.617Z,101032.00
2019-04-22T00:43:19.753Z,101035.00
2019-04-22T00:45:49.202Z,101028.00
2019-04-22T00:48:37.998Z,101025.00
2019-04-22T00:51:01.943Z,101025.00
2019-04-22T00:53:29.811Z,101027.00
2019-04-22T00:56:17.248Z,101029.00
2019-04-22T01:06:21.544Z,101009.00
2019-04-22T01:11:29.122Z,101011.00
2019-04-22T01:13:50.441Z,101005.00
2019-04-22T01:16:22.700Z,100999.00
2019-04-22T01:18:55.514Z,101004.00
2019-04-22T01:21:36.892Z,100998.00
2019-04-22T01:23:59.825Z,100994.00
2019-04-22T01:26:31.297Z,100989.00
2019-04-22T01:28:59.840Z,100991.00
2019-04-22T01:31:20.317Z,100987.00
2019-04-22T01:34:04.625Z,100985.00
2019-04-22T01:36:35.253Z,100978.00
2019-04-22T01:39:18.688Z,100975.00
2019-04-22T01:41:54.638Z,100973.00
2019-04-22T01:46:50.733Z,100972.00
2019-04-22T01:49:30.243Z,100972.00
2019-04-22T01:51:58.711Z,100967.00
2019-04-22T01:54:29.922Z,100962.00
2019-04-22T01:56:57.025Z,100954.00
2019-04-22T01:59:19.831Z,100962.00
2019-04-22T02:02:07.041Z,100962.00
2019-04-22T02:04:37.618Z,100957.00
2019-04-22T02:07:07.462Z,100944.00
2019-04-22T02:09:38.291Z,100949.00
2019-04-22T02:12:11.570Z,100941.00
2019-04-22T02:14:39.413Z,100945.00
2019-04-22T02:17:14.492Z,100932.00
2019-04-22T02:19:46.365Z,100937.00
2019-04-22T02:22:18.010Z,100942.00
2019-04-22T02:24:46.833Z,100929.00
2019-04-22T02:27:23.991Z,100925.00
2019-04-22T02:29:50.095Z,100933.00
2019-04-22T02:35:01.554Z,100925.00
2019-04-22T02:37:22.840Z,100923.00
2019-04-22T02:39:55.350Z,100923.00
2019-04-22T02:42:24.630Z,100922.00
2019-04-22T02:44:53.589Z,100916.00
2019-04-22T02:50:02.352Z,100917.00
2019-04-22T02:55:15.775Z,100909.00
2019-04-22T03:05:09.108Z,100898.00
2019-04-22T03:07:43.461Z,100899.00
2019-04-22T03:10:16.086Z,100891.00
2019-04-22T03:15:16.565Z,100893.00
2019-04-22T03:17:58.414Z,100891.00
2019-04-22T03:22:46.833Z,100886.00
2019-04-22T03:27:47.851Z,100879.00
2019-04-22T03:40:42.882Z,100866.00
2019-04-22T03:50:38.793Z,100867.00
2019-04-22T03:53:09.867Z,100856.00
2019-04-22T03:55:39.127Z,100858.00
2019-04-22T03:58:18.968Z,100854.00
2019-04-22T04:00:43.155Z,100863.00
2019-04-22T04:03:21.087Z,100862.00
2019-04-22T04:10:57.975Z,100845.00
2019-04-22T04:15:38.439Z,100844.00
2019-04-22T04:18:30.639Z,100839.00
2019-04-22T04:31:06.530Z,100837.00
2019-04-22T04:33:35.994Z,100844.00
2019-04-22T04:36:12.930Z,100843.00
2019-04-22T04:38:28.736Z,100845.00
2019-04-22T04:41:04.238Z,100844.00
2019-04-22T04:43:35.121Z,100835.00
2019-04-22T04:46:11.080Z,100844.00
2019-04-22T04:48:44.814Z,100844.00
2019-04-22T04:53:31.786Z,100837.00
2019-04-22T04:56:11.950Z,100834.00
2019-04-22T05:01:14.235Z,100834.00
2019-04-22T05:03:49.009Z,100835.00
2019-04-22T05:06:12.605Z,100837.00
2019-04-22T05:09:03.894Z,100833.00
2019-04-22T05:11:37.223Z,100827.00
2019-04-22T05:18:55.096Z,100827.00
2019-04-22T05:21:19.899Z,100826.00
2019-04-22T05:23:53.506Z,100828.00
2019-04-22T05:26:28.037Z,100832.00
2019-04-22T05:28:50.079Z,100829.00
2019-04-22T05:31:22.935Z,100823.00
2019-04-22T05:33:56.272Z,100827.00
2019-04-22T05:36:30.007Z,100822.00
2019-04-22T05:39:01.826Z,100829.00
2019-04-22T05:41:30.695Z,100819.00
2019-04-22T05:44:04.966Z,100818.00
2019-04-22T05:46:28.602Z,100821.00
2019-04-22T05:49:07.051Z,100818.00
2019-04-22T05:51:36.979Z,100818.00
2019-04-22T05:54:13.300Z,100816.00
2019-04-22T05:56:37.180Z,100818.00
2019-04-22T06:01:52.034Z,100819.00
2019-04-22T06:04:11.468Z,100817.00
2019-04-22T06:06:36.980Z,100815.00
2019-04-22T06:09:14.720Z,100816.00
2019-04-22T06:11:44.794Z,100818.00
2019-04-22T06:14:15.256Z,100826.00
2019-04-22T06:16:53.234Z,100818.00
2019-04-22T06:19:38.633Z,100818.00
2019-04-22T06:21:55.705Z,100821.00
2019-04-22T06:24:29.084Z,100816.00
2019-04-22T06:29:41.271Z,100820.00
2019-04-22T06:34:35.947Z,100817.00
2019-04-22T06:37:07.375Z,100809.00
2019-04-22T06:42:08.926Z,100811.00
2019-04-22T06:44:40.934Z,100805.00
2019-04-22T06:47:41.210Z,100800.00
2019-04-22T06:49:42.387Z,100801.00
2019-04-22T06:52:14.174Z,100803.00
2019-04-22T06:54:59.470Z,100797.00
2019-04-22T06:57:13.477Z,100797.00
2019-04-22T06:59:47.432Z,100794.00
2019-04-22T07:02:23.898Z,100789.00
2019-04-22T07:04:53.828Z,100788.00
2019-04-22T07:07:22.110Z,100788.00
2019-04-22T07:09:54.373Z,100794.00
2019-04-22T07:12:24.435Z,100784.00
2019-04-22T07:14:55.892Z,100787.00
2019-04-22T07:17:34.381Z,100781.00
2019-04-22T07:20:02.105Z,100786.00
2019-04-22T07:22:43.651Z,100774.00
2019-04-22T07:24:58.814Z,100780.00
2019-04-22T07:31:16.262Z,100785.00
2019-04-22T07:34:13.407Z,100782.00
2019-04-22T07:38:48.591Z,100777.00
2019-04-22T07:41:29.021Z,100773.00
2019-04-22T07:46:26.617Z,100766.00
2019-04-22T07:48:57.613Z,100764.00
2019-04-22T07:51:32.598Z,100760.00
2019-04-22T07:54:01.415Z,100760.00
2019-04-22T07:56:29.323Z,100753.00
2019-04-22T07:59:07.360Z,100746.00
2019-04-22T08:01:30.530Z,100752.00
2019-04-22T08:04:17.638Z,100746.00
2019-04-22T08:06:43.806Z,100745.00
2019-04-22T08:09:13.839Z,100736.00
2019-04-22T08:11:59.839Z,100740.00
2019-04-22T08:14:14.408Z,100731.00
2019-04-22T08:16:48.508Z,100735.00
2019-04-22T08:19:28.439Z,100732.00
2019-04-22T08:21:49.411Z,100729.00
2019-04-22T08:24:18.444Z,100732.00
2019-04-22T08:26:56.429Z,100731.00
2019-04-22T08:29:26.052Z,100733.00
2019-04-22T08:31:58.042Z,100725.00
2019-04-22T08:37:24.189Z,100725.00
2019-04-22T08:39:25.608Z,100721.00
2019-04-22T08:41:55.773Z,100716.00
2019-04-22T08:44:49.655Z,100720.00
2019-04-22T08:47:14.167Z,100718.00
2019-04-22T08:49:35.329Z,100720.00
2019-04-22T08:52:16.524Z,100705.00
2019-04-22T08:54:40.118Z,100712.00
2019-04-22T08:59:37.462Z,100699.00
2019-04-22T09:02:25.919Z,100699.00
2019-04-22T09:04:47.983Z,100696.00
2019-04-22T09:07:36.793Z,100701.00
2019-04-22T09:09:54.091Z,100690.00
2019-04-22T09:12:34.738Z,100692.00
2019-04-22T09:14:53.745Z,100689.00
2019-04-22T09:17:33.100Z,100695.00
2019-04-22T09:20:04.686Z,100689.00
2019-04-22T09:22:47.303Z,100682.00
2019-04-22T09:25:08.438Z,100682.00
2019-04-22T09:27:42.965Z,100677.00
2019-04-22T09:30:15.118Z,100673.00
2019-04-22T09:32:44.916Z,100672.00
2019-04-22T09:35:18.164Z,100663.00
2019-04-22T09:37:48.667Z,100664.00
2019-04-22T09:40:22.208Z,100658.00
2019-04-22T09:42:50.472Z,100657.00
2019-04-22T09:45:15.117Z,100657.00
2019-04-22T09:47:56.870Z,100654.00
2019-04-22T09:50:29.490Z,100650.00
2019-04-22T09:53:02.355Z,100645.00
2019-04-22T09:55:43.051Z,100632.00
2019-04-22T09:57:56.733Z,100633.00
2019-04-22T10:00:37.633Z,100624.00
2019-04-22T10:03:10.315Z,100631.00
2019-04-22T10:05:41.176Z,100617.00
2019-04-22T10:08:16.378Z,100610.00
2019-04-22T10:10:46.464Z,100611.00
2019-04-22T10:13:12.800Z,100610.00
2019-04-22T10:15:52.118Z,100597.00
2019-04-22T10:18:16.260Z,100600.00
2019-04-22T10:20:50.504Z,100598.00
2019-04-22T10:23:20.227Z,100582.00
2019-04-22T10:25:53.814Z,100576.00
2019-04-22T10:28:24.835Z,100573.00
2019-04-22T10:33:14.925Z,100560.00
2019-04-22T10:35:30.642Z,100562.00
2019-04-22T10:38:00.527Z,100553.00
2019-04-22T10:40:36.408Z,100545.00
2019-04-22T10:43:09.398Z,100555.00
2019-04-22T10:45:39.810Z,100532.00
2019-04-22T10:48:12.336Z,100538.00
2019-04-22T10:50:48.560Z,100534.00
2019-04-22T10:53:19.777Z,100524.00
2019-04-22T10:55:51.538Z,100527.00
2019-04-22T10:58:22.832Z,100517.00
2019-04-22T11:00:54.118Z,100508.00
2019-04-22T11:03:24.614Z,100507.00
2019-04-22T11:05:54.356Z,100503.00
2019-04-22T11:08:32.696Z,100513.00
2019-04-22T11:11:10.858Z,100504.00
2019-04-22T11:13:27.999Z,100497.00
2019-04-22T11:16:28.113Z,100498.00
2019-04-22T11:18:59.309Z,100495.00
2019-04-22T11:21:29.570Z,100498.00
2019-04-22T11:24:00.621Z,100498.00
2019-04-22T11:26:31.788Z,100492.00
2019-04-22T11:29:01.570Z,100485.00
2019-04-22T11:31:32.415Z,100478.00
2019-04-22T11:34:02.778Z,100471.00
2019-04-22T11:36:32.657Z,100475.00
2019-04-22T11:39:05.663Z,100466.00
2019-04-22T11:41:33.895Z,100465.00
2019-04-22T11:44:03.568Z,100475.00
2019-04-22T11:46:33.717Z,100464.00
2019-04-22T11:49:03.832Z,100462.00
2019-04-22T11:51:33.831Z,100454.00
2019-04-22T11:54:05.011Z,100453.00
2019-04-22T11:56:35.014Z,100455.00
2019-04-22T11:59:04.966Z,100449.00
2019-04-22T12:01:35.003Z,100442.00
2019-04-22T12:04:05.029Z,100444.00
2019-04-22T12:06:35.955Z,100439.00
2019-04-22T12:09:12.114Z,100444.00
2019-04-22T12:11:41.747Z,100435.00
2019-04-22T12:14:11.808Z,100426.00
2019-04-22T12:16:41.470Z,100433.00
2019-04-22T12:19:11.344Z,100437.00
2019-04-22T12:21:41.589Z,100439.00
2019-04-22T12:24:11.243Z,100426.00
2019-04-22T12:26:42.185Z,100426.00
2019-04-22T12:29:13.240Z,100419.00
2019-04-22T12:31:42.883Z,100410.00
2019-04-22T12:34:13.302Z,100399.00
2019-04-22T12:36:42.799Z,100393.00
2019-04-22T12:39:13.751Z,100396.00
2019-04-22T12:41:44.329Z,100393.00
2019-04-22T12:44:15.004Z,100397.00
2019-04-22T12:46:46.010Z,100389.00
2019-04-22T12:49:16.352Z,100389.00
2019-04-22T12:51:47.331Z,100383.00
2019-04-22T12:54:17.147Z,100381.00
2019-04-22T12:56:47.958Z,100379.00
2019-04-22T12:59:17.534Z,100382.00
2019-04-22T13:01:47.102Z,100364.00
2019-04-22T13:04:19.461Z,100356.00
2019-04-22T13:06:48.071Z,100362.00
2019-04-22T13:09:19.497Z,100350.00
2019-04-22T13:11:50.898Z,100340.00
2019-04-22T13:14:21.103Z,100337.00
2019-04-22T13:16:55.297Z,100338.00
2019-04-22T13:19:28.076Z,100341.00
2019-04-22T13:21:56.646Z,100335.00
2019-04-22T13:24:27.883Z,100316.00
2019-04-22T13:26:58.995Z,100310.00
2019-04-22T13:29:28.715Z,100317.00
2019-04-22T13:31:58.653Z,100317.00
2019-04-22T13:34:34.751Z,100304.00
2019-04-22T13:37:01.164Z,100306.00
2019-04-22T13:39:31.324Z,100311.00
2019-04-22T13:44:33.590Z,100306.00
2019-04-22T13:47:26.953Z,100297.00
2019-04-22T13:50:11.664Z,100298.00
2019-04-22T13:53:53.503Z,100311.00
2019-04-22T13:55:01.729Z,100291.00
2019-04-22T13:57:27.641Z,100286.00
2019-04-22T13:59:44.572Z,100292.00
2019-04-22T14:02:16.904Z,100292.00
2019-04-22T14:04:48.482Z,100286.00
2019-04-22T14:07:19.013Z,100274.00
2019-04-22T14:09:52.001Z,100277.00
2019-04-22T14:12:21.812Z,100277.00
2019-04-22T14:14:52.612Z,100259.00
2019-04-22T14:17:23.035Z,100264.00
2019-04-22T14:19:52.834Z,100251.00
2019-04-22T14:22:22.388Z,100257.00
2019-04-22T14:24:52.408Z,100244.00
2019-04-22T14:27:37.312Z,100247.00
2019-04-22T14:29:53.644Z,100238.00
2019-04-22T14:32:27.456Z,100231.00
2019-04-22T14:34:55.316Z,100222.00
2019-04-22T14:37:25.020Z,100226.00
2019-04-22T14:39:55.722Z,100218.00
2019-04-22T14:42:43.996Z,100216.00
2019-04-22T14:45:23.130Z,100216.00
2019-04-22T14:47:51.327Z,100216.00
2019-04-22T14:50:22.272Z,100202.00
2019-04-22T14:52:52.322Z,100206.00
2019-04-22T14:55:08.058Z,100198.00
2019-04-22T14:57:34.327Z,100206.00
2019-04-22T15:00:15.525Z,100194.00
2019-04-22T15:02:46.043Z,100193.00
2019-04-22T15:05:16.393Z,100190.00
2019-04-22T15:07:45.973Z,100183.00
2019-04-22T15:10:17.998Z,100185.00
2019-04-22T15:12:50.219Z,100176.00
2019-04-22T15:15:34.132Z,100179.00
2019-04-22T15:18:24.217Z,100166.00
2019-04-22T15:20:56.543Z,100169.00
2019-04-22T15:23:26.753Z,100170.00
2019-04-22T15:25:56.788Z,100167.00
2019-04-22T15:28:27.203Z,100166.00
2019-04-22T15:30:57.455Z,100158.00
2019-04-22T15:33:27.715Z,100170.00
2019-04-22T15:35:58.955Z,100165.00
2019-04-22T15:38:30.083Z,100157.00
2019-04-22T15:41:00.950Z,100150.00
2019-04-22T15:43:33.294Z,100150.00
2019-04-22T15:46:03.875Z,100153.00
2019-04-22T15:48:34.178Z,100147.00
2019-04-22T15:51:04.827Z,100151.00
2019-04-22T15:53:35.779Z,100141.00
2019-04-22T15:56:05.772Z,100140.00
2019-04-22T15:58:35.661Z,100137.00
2019-04-22T16:01:12.941Z,100131.00
2019-04-22T16:03:36.944Z,100134.00
2019-04-22T16:06:06.353Z,100128.00
2019-04-22T16:08:39.019Z,100129.00
2019-04-22T16:11:07.144Z,100124.00
2019-04-22T16:13:38.573Z,100123.00
2019-04-22T16:16:07.964Z,100121.00
2019-04-22T16:18:38.051Z,100124.00
2019-04-22T16:21:08.953Z,100117.00
2019-04-22T16:23:52.197Z,100114.00
2019-04-22T16:26:24.307Z,100115.00
2019-04-22T16:28:56.280Z,100108.00
2019-04-22T16:31:25.272Z,100114.00
2019-04-22T16:33:54.644Z,100113.00
2019-04-22T16:36:24.872Z,100112.00
2019-04-22T16:38:55.437Z,100116.00
2019-04-22T16:41:26.534Z,100112.00
2019-04-22T16:43:56.372Z,100101.00
2019-04-22T16:46:25.948Z,100103.00
2019-04-22T16:48:55.973Z,100111.00
2019-04-22T16:51:25.511Z,100101.00
2019-04-22T16:53:55.782Z,100101.00
2019-04-22T16:56:26.651Z,100101.00
2019-04-22T16:58:56.839Z,100096.00
2019-04-22T17:01:43.210Z,100098.00
2019-04-22T17:04:20.813Z,100095.00
2019-04-22T17:06:53.349Z,100097.00
2019-04-22T17:09:23.855Z,100095.00
2019-04-22T17:11:53.982Z,100084.00
2019-04-22T17:14:32.356Z,100094.00
2019-04-22T17:16:54.861Z,100087.00
2019-04-22T17:19:24.295Z,100101.00
2019-04-22T17:21:53.762Z,100095.00
2019-04-22T17:24:23.675Z,100100.00
2019-04-22T17:26:54.621Z,100104.00
2019-04-22T17:29:24.224Z,100100.00
2019-04-22T17:32:00.433Z,100097.00
2019-04-22T17:34:25.475Z,100091.00
2019-04-22T17:36:55.314Z,100093.00
2019-04-22T17:39:35.921Z,100095.00
2019-04-22T17:42:14.077Z,100089.00
2019-04-22T17:44:59.197Z,100085.00
2019-04-22T17:47:20.572Z,100092.00
2019-04-22T17:50:00.162Z,100092.00
2019-04-22T17:52:30.852Z,100096.00
2019-04-22T17:54:51.502Z,100092.00
2019-04-22T17:57:27.982Z,100094.00
2019-04-22T18:00:03.680Z,100086.00
2019-04-22T18:02:26.770Z,100084.00
2019-04-22T18:04:53.084Z,100097.00
2019-04-22T18:07:49.626Z,100092.00
2019-04-22T18:12:42.613Z,100098.00
2019-04-22T18:15:12.088Z,100096.00
2019-04-22T18:18:00.882Z,100104.00
2019-04-22T18:20:09.824Z,100103.00
2019-04-22T18:22:37.223Z,100107.00
2019-04-22T18:25:07.694Z,100109.00
2019-04-22T18:28:07.524Z,100106.00
2019-04-22T18:30:16.329Z,100103.00
2019-04-22T18:32:43.780Z,100110.00
2019-04-22T18:35:16.659Z,100111.00
2019-04-22T18:37:58.797Z,100114.00
2019-04-22T18:40:18.104Z,100115.00
2019-04-22T18:42:58.850Z,100113.00
2019-04-22T18:47:51.441Z,100118.00
2019-04-22T18:50:43.049Z,100115.00
2019-04-22T18:53:12.397Z,100122.00
2019-04-22T18:55:33.970Z,100130.00
2019-04-22T18:58:06.790Z,100119.00
2019-04-22T19:00:31.553Z,100116.00
2019-04-22T19:03:08.885Z,100120.00
2019-04-22T19:05:54.330Z,100117.00
2019-04-22T19:08:28.808Z,100117.00
2019-04-22T19:11:05.009Z,100116.00
2019-04-22T19:13:53.172Z,100122.00
2019-04-22T19:16:14.334Z,100121.00
2019-04-22T19:18:35.037Z,100121.00
2019-04-22T19:21:08.081Z,100133.00
2019-04-22T19:23:32.126Z,100125.00
2019-04-22T19:26:07.129Z,100131.00
2019-04-22T19:28:40.430Z,100131.00
2019-04-22T19:31:13.463Z,100138.00
2019-04-22T19:33:40.038Z,100136.00
2019-04-22T19:36:11.049Z,100131.00
2019-04-22T19:38:30.045Z,100142.00
2019-04-22T19:43:47.261Z,100140.00
2019-04-22T19:46:14.737Z,100134.00
2019-04-22T19:48:49.797Z,100143.00
2019-04-22T19:51:23.549Z,100144.00
2019-04-22T19:53:51.326Z,100144.00
2019-04-22T19:56:11.281Z,100146.00
2019-04-22T19:58:42.620Z,100142.00
2019-04-22T20:01:30.855Z,100146.00
2019-04-22T20:04:16.561Z,100148.00
2019-04-22T20:06:57.616Z,100145.00
2019-04-22T20:09:39.825Z,100149.00
2019-04-22T20:12:00.666Z,100146.00
2019-04-22T20:14:34.911Z,100143.00
2019-04-22T20:17:02.205Z,100150.00
2019-04-22T20:19:45.443Z,100141.00
2019-04-22T20:22:09.097Z,100142.00
2019-04-22T20:24:27.733Z,100141.00
2019-04-22T20:27:13.751Z,100143.00
2019-04-22T20:29:43.374Z,100147.00
2019-04-22T20:32:16.927Z,100147.00
2019-04-22T20:34:51.116Z,100148.00
2019-04-22T20:37:22.558Z,100142.00
2019-04-22T20:39:46.862Z,100141.00
2019-04-22T20:42:31.374Z,100139.00
2019-04-22T20:44:51.762Z,100141.00
2019-04-22T20:47:17.681Z,100137.00
2019-04-22T20:49:55.419Z,100134.00
2019-04-22T20:52:33.870Z,100134.00
2019-04-22T20:54:57.244Z,100128.00
2019-04-22T20:57:33.594Z,100129.00
2019-04-22T20:59:55.887Z,100134.00
2019-04-22T21:02:23.844Z,100131.00
2019-04-22T21:04:50.382Z,100141.00
2019-04-22T21:07:26.611Z,100135.00
2019-04-22T21:10:02.402Z,100138.00
2019-04-22T21:12:27.755Z,100144.00
2019-04-22T21:15:10.728Z,100137.00
2019-04-22T21:17:34.764Z,100140.00
2019-04-22T21:20:13.795Z,100144.00
2019-04-22T21:22:42.057Z,100140.00
2019-04-22T21:25:06.174Z,100143.00
2019-04-22T21:27:45.360Z,100143.00
2019-04-22T21:30:10.647Z,100141.00
2019-04-22T21:32:44.742Z,100141.00
2019-04-22T21:35:31.941Z,100130.00
2019-04-22T21:37:51.024Z,100135.00
2019-04-22T21:40:21.750Z,100134.00
2019-04-22T21:42:53.127Z,100132.00
2019-04-22T21:45:15.333Z,100131.00
2019-04-22T21:48:05.211Z,100126.00
2019-04-22T21:53:00.781Z,100127.00
2019-04-22T21:55:29.726Z,100122.00
2019-04-22T21:58:06.938Z,100125.00
2019-04-22T22:00:46.144Z,100124.00
2019-04-22T22:03:14.552Z,100124.00
2019-04-22T22:05:35.482Z,100134.00
2019-04-22T22:08:11.355Z,100124.00
2019-04-22T22:10:45.420Z,100125.00
2019-04-22T22:13:15.601Z,100125.00
2019-04-22T22:15:47.441Z,100121.00
2019-04-22T22:18:16.557Z,100126.00
2019-04-22T22:21:01.064Z,100125.00
2019-04-22T22:23:25.295Z,100127.00
2019-04-22T22:25:48.705Z,100122.00
2019-04-22T22:28:42.177Z,100117.00
2019-04-22T22:31:15.528Z,100117.00
2019-04-22T22:33:24.240Z,100115.00
2019-04-22T22:35:52.005Z,100112.00
2019-04-22T22:38:27.137Z,100121.00
2019-04-22T22:40:41.594Z,100120.00
2019-04-22T22:43:17.239Z,100122.00
2019-04-22T22:45:48.678Z,100124.00
2019-04-22T22:48:40.882Z,100117.00
2019-04-22T22:51:05.419Z,100125.00
2019-04-22T22:53:42.902Z,100118.00
2019-04-22T22:56:02.202Z,100113.00
2019-04-22T22:58:40.807Z,100105.00
2019-04-22T23:01:07.113Z,100102.00
2019-04-22T23:06:21.065Z,100089.00
2019-04-22T23:08:48.486Z,100088.00
2019-04-22T23:11:13.441Z,100091.00
2019-04-22T23:13:49.956Z,100088.00
2019-04-22T23:16:08.882Z,100084.00
2019-04-22T23:18:28.016Z,100085.00
2019-04-22T23:20:59.348Z,100092.00
2019-04-22T23:23:43.606Z,100091.00
2019-04-22T23:26:40.758Z,100087.00
2019-04-22T23:29:07.124Z,100094.00
2019-04-22T23:31:38.002Z,100084.00
2019-04-22T23:34:11.890Z,100081.00
2019-04-22T23:36:52.564Z,100075.00
2019-04-22T23:39:30.955Z,100068.00
2019-04-22T23:42:07.272Z,100074.00
2019-04-22T23:44:31.926Z,100067.00
2019-04-22T23:46:59.927Z,100055.00
2019-04-22T23:49:28.251Z,100048.00
2019-04-22T23:52:10.187Z,100049.00
2019-04-22T23:54:49.568Z,100048.00
2019-04-22T23:57:26.351Z,100041.00
